Time;durP1;ratioP1;P1;durP2;ratioP2;P2;SDS_P1;SDS_P2;PMS_P1;PMS_P2;Temp;Humidity;BMP_temperature;BMP_pressure;BME280_temperature;BME280_humidity;BME280_pressure;Samples;Min_cycle;Max_cycle;Signal;HPM_P1;HPM_P2
2022/09/16 00:01:12;;;;;;;5.30;0.85;;;16.50;63.50;;;;;;5046988;28;20120;-54
2022/09/16 00:03:41;;;;;;;2.20;0.95;;;16.40;63.80;;;;;;5055270;28;20068;-53
2022/09/16 00:06:20;;;;;;;2.00;1.15;;;16.40;63.60;;;;;;5059638;28;20048;-51
2022/09/16 00:08:54;;;;;;;2.25;0.93;;;16.40;64.10;;;;;;5070335;28;20048;-52
2022/09/16 00:11:22;;;;;;;3.70;0.98;;;16.30;64.10;;;;;;5063652;28;20057;-52
2022/09/16 00:14:02;;;;;;;1.63;0.82;;;16.30;64.00;;;;;;5064502;28;20094;-50
2022/09/16 00:16:29;;;;;;;4.72;1.45;;;16.30;64.20;;;;;;5052554;28;20033;-51
2022/09/16 00:18:58;;;;;;;3.95;1.48;;;16.30;64.30;;;;;;5029774;28;20042;-50
2022/09/16 00:21:29;;;;;;;1.83;0.63;;;16.30;64.60;;;;;;5038044;28;20037;-51
2022/09/16 00:23:58;;;;;;;4.03;0.90;;;16.30;64.70;;;;;;5060758;28;20123;-52
2022/09/16 00:26:25;;;;;;;1.38;1.05;;;16.30;64.80;;;;;;5062177;28;20493;-51
2022/09/16 00:28:51;;;;;;;1.15;0.50;;;16.30;65.00;;;;;;5057414;28;20467;-49
2022/09/16 00:31:21;;;;;;;4.60;0.88;;;16.30;65.00;;;;;;5056748;28;20041;-51
2022/09/16 00:33:52;;;;;;;2.05;0.90;;;16.40;65.10;;;;;;5066379;28;20444;-52
2022/09/16 00:36:19;;;;;;;3.33;0.93;;;16.40;65.10;;;;;;5056035;28;20066;-55
2022/09/16 00:38:58;;;;;;;2.97;1.13;;;16.40;65.20;;;;;;5048223;28;20044;-51
2022/09/16 00:41:32;;;;;;;3.05;1.27;;;16.50;65.00;;;;;;5054605;28;20064;-50
2022/09/16 00:44:04;;;;;;;1.50;1.15;;;16.50;65.30;;;;;;5059145;28;20060;-49
2022/09/16 00:46:38;;;;;;;4.53;1.30;;;16.50;65.20;;;;;;5066761;28;20123;-54
2022/09/16 00:49:18;;;;;;;3.05;1.00;;;16.50;65.10;;;;;;5050680;28;20112;-52
2022/09/16 00:51:48;;;;;;;;;;;16.60;65.30;;;;;;5061248;28;20463;-50
2022/09/16 00:54:18;;;;;;;1.00;0.88;;;16.60;65.10;;;;;;5069545;28;19959;-51
2022/09/16 00:56:49;;;;;;;5.47;1.10;;;16.60;64.70;;;;;;5054567;28;20059;-50
2022/09/16 00:59:23;;;;;;;;;;;16.60;64.80;;;;;;5045864;28;20040;-51
2022/09/16 01:01:52;;;;;;;4.25;1.20;;;16.70;64.90;;;;;;5057180;28;19925;-52
2022/09/16 01:04:28;;;;;;;1.42;1.10;;;16.60;64.30;;;;;;5049716;28;20075;-49
2022/09/16 01:06:56;;;;;;;6.68;1.40;;;16.60;64.70;;;;;;5044186;28;20566;-52
2022/09/16 01:09:34;;;;;;;2.03;1.33;;;16.60;64.60;;;;;;5057457;28;20043;-49
2022/09/16 01:12:03;;;;;;;3.00;1.38;;;16.50;64.80;;;;;;5059929;28;20102;-54
2022/09/16 01:17:39;;;;;;;4.18;1.77;;;16.50;65.20;;;;;;5050836;28;20036;-54
2022/09/16 01:20:27;;;;;;;4.57;1.52;;;16.50;65.50;;;;;;5059862;28;20119;-51
2022/09/16 01:23:39;;;;;;;3.45;2.00;;;16.50;65.70;;;;;;5052563;28;20036;-49
2022/09/16 01:26:33;;;;;;;3.25;1.80;;;16.50;66.00;;;;;;5043510;28;20042;-54
2022/09/16 01:29:22;;;;;;;2.78;1.55;;;16.50;65.80;;;;;;5059429;28;20111;-52
2022/09/16 01:32:11;;;;;;;1.27;1.17;;;16.50;66.10;;;;;;5067993;28;20048;-52
2022/09/16 01:34:56;;;;;;;6.28;1.55;;;16.60;66.30;;;;;;5054464;28;20049;-49
2022/09/16 01:37:29;;;;;;;2.55;1.27;;;16.60;66.60;;;;;;5046419;28;20041;-52
2022/09/16 01:40:09;;;;;;;4.65;1.95;;;16.60;65.90;;;;;;5054758;28;20060;-52
2022/09/16 01:43:00;;;;;;;3.65;1.75;;;16.60;66.30;;;;;;5059223;28;20133;-49
2022/09/16 01:45:37;;;;;;;2.00;1.50;;;16.60;66.40;;;;;;5057513;28;20041;-49
2022/09/16 01:48:19;;;;;;;3.10;1.40;;;16.60;66.10;;;;;;5065282;28;20047;-50
2022/09/16 01:51:08;;;;;;;3.83;1.70;;;16.50;65.80;;;;;;5042803;28;20080;-52
2022/09/16 01:53:42;;;;;;;7.50;1.88;;;16.60;66.20;;;;;;5049947;28;20048;-50
2022/09/16 01:56:22;;;;;;;3.97;1.65;;;16.50;65.90;;;;;;5058267;28;20417;-52
2022/09/16 01:59:15;;;;;;;2.80;1.80;;;16.50;66.30;;;;;;5056930;28;20120;-52
2022/09/16 02:01:44;;;;;;;;;;;16.50;66.40;;;;;;5052988;28;20036;-51
2022/09/16 02:04:41;;;;;;;2.20;1.95;;;16.50;66.10;;;;;;5051217;28;19920;-50
2022/09/16 02:07:13;;;;;;;3.67;1.50;;;16.50;66.30;;;;;;5063933;28;20429;-53
2022/09/16 02:09:50;;;;;;;4.63;1.73;;;16.50;66.10;;;;;;5072722;28;20059;-49
2022/09/16 02:12:24;;;;;;;2.90;1.60;;;16.40;66.50;;;;;;5059964;28;20049;-50
2022/09/16 02:14:58;;;;;;;4.00;2.10;;;16.40;66.50;;;;;;5057906;28;20048;-51
2022/09/16 02:17:31;;;;;;;4.68;2.13;;;16.40;66.60;;;;;;5057583;28;20040;-56
2022/09/16 02:20:10;;;;;;;4.68;1.90;;;16.40;66.60;;;;;;5056560;28;20079;-50
2022/09/16 02:22:43;;;;;;;4.80;1.95;;;16.40;66.90;;;;;;5057237;28;20055;-49
2022/09/16 02:25:17;;;;;;;5.70;2.17;;;16.40;66.80;;;;;;5063968;28;20094;-53
2022/09/16 02:27:46;;;;;;;6.70;2.10;;;16.30;66.50;;;;;;5065351;28;20049;-51
2022/09/16 02:30:22;;;;;;;4.97;1.90;;;16.30;66.40;;;;;;5051356;28;20135;-49
2022/09/16 02:32:54;;;;;;;6.13;2.20;;;16.30;66.30;;;;;;5056983;28;20053;-53
2022/09/16 02:35:26;;;;;;;2.13;1.92;;;16.20;66.40;;;;;;5055558;28;20126;-52
2022/09/16 02:37:58;;;;;;;3.83;2.55;;;16.20;66.40;;;;;;5068140;28;20555;-49
2022/09/16 02:40:39;;;;;;;3.05;2.45;;;16.20;66.70;;;;;;5064991;28;20501;-51
2022/09/16 02:43:08;;;;;;;;;;;16.10;66.60;;;;;;5065842;28;20512;-53
2022/09/16 02:46:12;;;;;;;3.50;1.73;;;16.20;66.80;;;;;;5065103;28;20296;-50
2022/09/16 02:49:02;;;;;;;5.72;2.28;;;16.10;66.80;;;;;;5071141;28;20068;-50
2022/09/16 02:51:32;;;;;;;3.38;1.85;;;16.10;66.50;;;;;;5079656;22;20086;-50
2022/09/16 02:54:21;;;;;;;4.60;1.95;;;16.00;66.30;;;;;;5071838;28;20039;-52
2022/09/16 02:56:58;;;;;;;2.72;2.08;;;15.90;66.90;;;;;;5064868;28;20544;-48
2022/09/16 02:59:24;;;;;;;2.63;1.77;;;15.90;66.90;;;;;;5072652;28;20051;-50
2022/09/16 03:01:57;;;;;;;2.65;2.08;;;15.90;66.60;;;;;;5083612;28;20081;-47
2022/09/16 03:04:24;;;;;;;4.32;2.30;;;15.80;66.90;;;;;;5090508;28;20142;-49
2022/09/16 03:06:54;;;;;;;3.83;1.90;;;15.70;66.80;;;;;;5082596;28;20447;-47
2022/09/16 03:09:28;;;;;;;3.03;2.42;;;15.70;66.90;;;;;;5092939;28;20047;-50
2022/09/16 03:12:08;;;;;;;3.10;1.73;;;15.70;67.00;;;;;;5094950;28;20534;-49
2022/09/16 03:15:03;;;;;;;6.03;2.33;;;15.60;67.40;;;;;;5083574;28;20040;-49
2022/09/16 03:17:59;;;;;;;3.88;2.10;;;15.60;67.50;;;;;;5090394;28;20426;-47
2022/09/16 03:21:01;;;;;;;4.38;2.20;;;15.60;67.70;;;;;;5095388;28;20056;-51
2022/09/16 03:23:43;;;;;;;3.28;1.90;;;15.60;67.70;;;;;;5080249;28;20044;-51
2022/09/16 03:26:29;;;;;;;4.40;2.30;;;15.50;67.60;;;;;;5092071;28;20040;-52
2022/09/16 03:29:16;;;;;;;4.45;2.45;;;15.50;67.30;;;;;;5093239;28;20399;-48
2022/09/16 03:32:05;;;;;;;3.28;1.98;;;15.50;67.90;;;;;;5080081;28;20039;-52
2022/09/16 03:34:38;;;;;;;3.10;1.48;;;15.50;67.90;;;;;;5070138;28;20056;-49
2022/09/16 03:37:08;;;;;;;4.43;1.85;;;15.50;67.50;;;;;;5096972;28;20040;-51
2022/09/16 03:39:37;;;;;;;4.57;1.77;;;15.50;67.40;;;;;;5085431;28;20086;-47
2022/09/16 03:42:12;;;;;;;4.28;1.58;;;15.50;67.20;;;;;;5088972;28;20062;-47
2022/09/16 03:44:39;;;;;;;3.05;2.50;;;15.50;67.10;;;;;;5090670;28;20412;-47
2022/09/16 03:47:09;;;;;;;3.63;1.42;;;15.50;67.00;;;;;;5095159;28;20423;-46
2022/09/16 03:49:40;;;;;;;5.72;1.90;;;15.50;67.00;;;;;;5090623;28;20518;-52
2022/09/16 03:52:16;;;;;;;3.20;1.83;;;15.50;66.80;;;;;;5081638;28;20057;-53
2022/09/16 03:54:42;;;;;;;4.95;2.05;;;15.50;66.80;;;;;;5090348;28;20047;-50
2022/09/16 03:57:09;;;;;;;5.32;1.70;;;15.50;66.80;;;;;;5091478;28;20039;-50
2022/09/16 03:59:36;;;;;;;3.33;1.33;;;15.40;67.40;;;;;;5081473;28;20052;-48
2022/09/16 04:02:07;;;;;;;3.38;1.70;;;15.40;66.80;;;;;;5081265;28;20036;-50
2022/09/16 04:04:37;;;;;;;2.40;1.52;;;15.40;66.90;;;;;;5090881;28;20044;-53
2022/09/16 04:07:06;;;;;;;1.95;1.77;;;15.40;67.00;;;;;;5092894;28;20051;-49
2022/09/16 04:09:36;;;;;;;1.58;1.38;;;15.40;67.00;;;;;;5084303;28;20111;-51
2022/09/16 04:12:06;;;;;;;2.97;1.53;;;15.40;67.00;;;;;;5087693;28;20411;-52
2022/09/16 04:14:36;;;;;;;5.20;1.70;;;15.40;67.00;;;;;;5090745;28;20321;-53
2022/09/16 04:17:05;;;;;;;5.43;1.90;;;15.40;67.10;;;;;;5080412;28;20032;-53
2022/09/16 04:19:32;;;;;;;3.67;1.60;;;15.40;67.00;;;;;;5069552;28;20048;-50
2022/09/16 04:22:01;;;;;;;4.93;1.65;;;15.50;67.00;;;;;;5079365;28;20043;-52
2022/09/16 04:24:28;;;;;;;2.38;1.08;;;15.40;66.90;;;;;;5091072;28;20654;-52
2022/09/16 04:26:55;;;;;;;3.83;1.35;;;15.40;66.80;;;;;;5090735;28;20563;-54
2022/09/16 04:29:21;;;;;;;5.97;1.42;;;15.50;66.80;;;;;;5084468;28;20089;-49
2022/09/16 04:31:48;;;;;;;4.75;1.40;;;15.50;66.80;;;;;;5080062;28;20041;-49
2022/09/16 04:34:15;;;;;;;3.03;1.55;;;15.50;66.80;;;;;;5077405;28;20055;-54
2022/09/16 04:36:41;;;;;;;2.92;1.92;;;15.50;66.80;;;;;;5088801;28;20575;-52
2022/09/16 04:39:08;;;;;;;1.88;1.60;;;15.50;66.90;;;;;;5078078;28;20143;-50
2022/09/16 04:41:34;;;;;;;3.65;1.48;;;15.50;67.00;;;;;;5077693;28;20107;-50
2022/09/16 04:44:01;;;;;;;2.55;1.30;;;15.50;67.10;;;;;;5084540;28;20032;-52
2022/09/16 04:46:29;;;;;;;3.90;1.50;;;15.50;66.90;;;;;;5083025;28;20770;-51
2022/09/16 04:48:58;;;;;;;2.45;1.67;;;15.60;66.90;;;;;;5084216;28;20044;-51
2022/09/16 04:51:27;;;;;;;2.63;1.50;;;15.60;67.50;;;;;;5081066;28;20221;-52
2022/09/16 04:53:55;;;;;;;4.60;1.77;;;15.60;66.80;;;;;;5082176;28;20046;-48
2022/09/16 04:56:27;;;;;;;3.83;2.03;;;15.60;66.70;;;;;;5083228;28;20562;-53
2022/09/16 04:58:57;;;;;;;4.13;2.00;;;15.60;66.80;;;;;;5076433;28;20398;-53
2022/09/16 05:01:26;;;;;;;5.07;1.73;;;15.60;66.60;;;;;;5093271;28;20024;-50
2022/09/16 05:03:57;;;;;;;2.17;1.60;;;15.70;66.80;;;;;;5089994;28;20078;-51
2022/09/16 05:06:27;;;;;;;5.75;1.70;;;15.70;66.80;;;;;;5077678;28;20056;-49
2022/09/16 05:08:54;;;;;;;3.95;1.70;;;15.70;66.70;;;;;;5069375;28;20056;-51
2022/09/16 05:11:23;;;;;;;2.60;1.50;;;15.70;66.60;;;;;;5081114;28;20069;-47
2022/09/16 05:13:51;;;;;;;4.93;1.65;;;15.70;66.60;;;;;;5089469;28;20522;-51
2022/09/16 05:16:20;;;;;;;2.45;1.48;;;15.70;66.60;;;;;;5079816;28;20040;-58
2022/09/16 05:18:49;;;;;;;4.75;1.60;;;15.70;66.60;;;;;;5077770;28;20560;-54
2022/09/16 05:21:18;;;;;;;4.18;1.60;;;15.70;66.60;;;;;;5090478;28;20412;-53
2022/09/16 05:23:45;;;;;;;1.58;1.13;;;15.70;66.50;;;;;;5078394;28;20390;-56
2022/09/16 05:26:22;;;;;;;3.00;1.55;;;15.80;66.40;;;;;;5080189;28;20056;-56
2022/09/16 05:28:49;;;;;;;4.68;1.52;;;15.70;66.40;;;;;;5088350;28;20056;-57
2022/09/16 05:31:21;;;;;;;3.70;1.20;;;15.80;66.40;;;;;;5088511;28;20132;-55
2022/09/16 05:34:00;;;;;;;2.80;1.17;;;15.80;66.50;;;;;;5080868;28;20705;-54
2022/09/16 05:36:29;;;;;;;4.55;1.48;;;15.80;66.40;;;;;;5077466;28;20524;-55
2022/09/16 05:38:59;;;;;;;1.67;1.35;;;15.80;66.20;;;;;;5075263;28;20054;-56
2022/09/16 05:41:46;;;;;;;2.38;1.20;;;15.80;66.20;;;;;;5092400;28;20050;-54
2022/09/16 05:44:13;;;;;;;3.50;1.20;;;15.70;66.00;;;;;;5080327;28;20051;-54
2022/09/16 05:46:41;;;;;;;2.60;1.30;;;15.70;66.10;;;;;;5085294;28;20423;-55
2022/09/16 05:49:08;;;;;;;5.10;1.70;;;15.70;66.10;;;;;;5074481;28;20136;-56
2022/09/16 05:51:37;;;;;;;3.28;0.93;;;15.80;66.20;;;;;;5079343;28;20074;-55
2022/09/16 05:54:04;;;;;;;1.95;1.25;;;15.70;66.10;;;;;;5077237;28;20485;-54
2022/09/16 05:56:31;;;;;;;9.40;1.85;;;15.70;66.10;;;;;;5088128;28;20186;-52
2022/09/16 05:58:59;;;;;;;4.22;1.45;;;15.70;66.10;;;;;;5085215;28;20047;-54
2022/09/16 06:01:29;;;;;;;3.72;1.42;;;15.70;66.20;;;;;;5080024;28;20043;-55
2022/09/16 06:03:56;;;;;;;2.05;1.15;;;15.70;66.10;;;;;;5087720;28;20055;-56
2022/09/16 06:06:31;;;;;;;1.92;1.10;;;15.70;66.10;;;;;;5087265;28;20044;-55
2022/09/16 06:09:02;;;;;;;2.47;1.23;;;15.80;66.10;;;;;;5089669;28;20116;-56
2022/09/16 06:11:29;;;;;;;1.90;1.35;;;15.80;66.10;;;;;;5077789;28;20041;-56
2022/09/16 06:13:58;;;;;;;3.83;1.20;;;15.80;66.10;;;;;;5087635;28;20054;-54
2022/09/16 06:16:26;;;;;;;2.53;1.20;;;15.80;66.20;;;;;;5092099;28;20098;-51
2022/09/16 06:18:54;;;;;;;4.20;1.35;;;15.80;66.20;;;;;;5084013;28;20053;-55
2022/09/16 06:21:21;;;;;;;6.03;1.30;;;15.90;66.30;;;;;;5079416;28;20041;-54
2022/09/16 06:23:48;;;;;;;4.50;1.15;;;15.90;66.30;;;;;;5091538;28;20044;-57
2022/09/16 06:26:20;;;;;;;2.15;1.10;;;15.90;66.50;;;;;;5092924;28;20048;-54
2022/09/16 06:28:48;;;;;;;2.90;1.00;;;15.90;66.50;;;;;;5082524;28;20043;-54
2022/09/16 06:31:17;;;;;;;1.25;1.10;;;16.00;66.40;;;;;;5085424;28;20051;-55
2022/09/16 06:33:44;;;;;;;2.13;1.45;;;16.10;66.30;;;;;;5085313;28;20040;-54
2022/09/16 06:36:17;;;;;;;5.45;1.55;;;16.10;66.30;;;;;;5089238;28;20558;-53
2022/09/16 06:38:44;;;;;;;;;;;16.10;66.10;;;;;;5082970;28;20047;-52
2022/09/16 06:41:12;;;;;;;1.63;0.90;;;16.30;66.20;;;;;;5082183;28;19926;-52
2022/09/16 06:43:40;;;;;;;2.65;1.42;;;16.30;65.70;;;;;;5081489;28;20036;-52
2022/09/16 06:46:12;;;;;;;1.35;1.02;;;16.30;65.70;;;;;;5091243;28;20155;-55
2022/09/16 06:48:40;;;;;;;2.75;1.08;;;16.30;65.60;;;;;;5088052;28;20126;-55
2022/09/16 06:51:10;;;;;;;2.03;0.80;;;16.40;65.50;;;;;;5091069;28;20051;-53
2022/09/16 06:53:37;;;;;;;1.58;1.15;;;16.40;65.50;;;;;;5092944;28;20036;-56
2022/09/16 06:56:07;;;;;;;5.40;1.75;;;16.40;65.40;;;;;;5095845;28;20039;-55
2022/09/16 06:58:35;;;;;;;4.47;1.70;;;16.40;65.60;;;;;;5083512;28;20043;-55
2022/09/16 07:01:07;;;;;;;2.03;1.08;;;16.40;65.50;;;;;;5070997;28;20032;-54
2022/09/16 07:03:37;;;;;;;2.83;1.05;;;16.50;65.50;;;;;;5087932;28;20511;-52
2022/09/16 07:06:04;;;;;;;2.42;1.15;;;16.50;65.30;;;;;;5096595;28;20032;-54
2022/09/16 07:08:32;;;;;;;5.38;1.50;;;16.50;65.10;;;;;;5086961;28;20051;-55
2022/09/16 07:11:03;;;;;;;2.45;0.60;;;16.60;65.00;;;;;;5080064;28;20055;-55
2022/09/16 07:13:31;;;;;;;1.67;1.15;;;16.60;64.90;;;;;;5088885;28;20046;-54
2022/09/16 07:16:08;;;;;;;0.75;0.60;;;16.50;65.00;;;;;;5081603;28;20044;-55
2022/09/16 07:18:39;;;;;;;2.90;1.02;;;16.80;64.90;;;;;;5090438;28;20484;-55
2022/09/16 07:21:11;;;;;;;1.83;0.60;;;16.70;64.90;;;;;;5092515;28;20044;-51
2022/09/16 07:23:39;;;;;;;5.22;1.83;;;16.70;64.40;;;;;;5096563;28;20424;-53
2022/09/16 07:26:12;;;;;;;1.42;0.50;;;16.70;64.50;;;;;;5082862;28;20083;-55
2022/09/16 07:28:40;;;;;;;3.63;0.70;;;16.80;65.00;;;;;;5092942;28;20044;-55
2022/09/16 07:31:11;;;;;;;2.42;1.33;;;16.80;65.20;;;;;;5090774;28;20051;-55
2022/09/16 07:33:43;;;;;;;6.18;1.10;;;16.90;65.00;;;;;;5088004;28;20052;-52
2022/09/16 07:36:12;;;;;;;5.40;0.60;;;17.00;64.90;;;;;;5084853;28;20263;-53
2022/09/16 07:38:38;;;;;;;1.90;0.73;;;17.00;64.50;;;;;;5086650;28;20510;-55
2022/09/16 07:41:07;;;;;;;3.30;0.80;;;17.10;64.50;;;;;;5091279;28;20113;-55
2022/09/16 07:43:34;;;;;;;6.95;0.90;;;17.10;64.30;;;;;;5078694;28;20036;-54
2022/09/16 07:46:01;;;;;;;2.38;0.38;;;17.20;64.10;;;;;;5081582;28;20036;-55
2022/09/16 07:48:29;;;;;;;3.10;0.90;;;17.20;64.00;;;;;;5082792;28;20055;-54
2022/09/16 07:51:07;;;;;;;2.83;0.47;;;17.30;63.50;;;;;;5096444;28;20492;-52
2022/09/16 07:53:35;;;;;;;2.38;0.85;;;17.30;63.20;;;;;;5085721;28;20048;-54
2022/09/16 07:56:11;;;;;;;2.22;0.82;;;17.30;63.30;;;;;;5083260;28;20118;-52
2022/09/16 07:58:39;;;;;;;1.60;0.50;;;17.30;63.30;;;;;;5085832;28;20036;-54
2022/09/16 08:01:06;;;;;;;1.05;0.40;;;17.30;63.50;;;;;;5094850;28;20032;-53
2022/09/16 08:03:36;;;;;;;1.13;0.50;;;17.40;63.40;;;;;;5086196;28;20493;-56
2022/09/16 08:06:15;;;;;;;2.92;0.63;;;17.40;63.40;;;;;;5087868;28;20050;-54
2022/09/16 08:08:44;;;;;;;0.80;0.47;;;17.40;63.80;;;;;;5088527;28;20044;-55
2022/09/16 08:11:13;;;;;;;2.55;0.70;;;17.50;63.50;;;;;;5087172;28;20036;-53
2022/09/16 08:13:41;;;;;;;3.13;0.50;;;17.50;63.40;;;;;;5079794;28;20040;-56
2022/09/16 08:16:11;;;;;;;1.05;0.68;;;17.50;63.60;;;;;;5089954;28;20055;-55
2022/09/16 08:18:38;;;;;;;2.92;0.82;;;17.60;63.40;;;;;;5086098;28;20048;-56
2022/09/16 08:21:06;;;;;;;2.63;0.35;;;17.60;63.20;;;;;;5088940;28;20043;-56
2022/09/16 08:23:34;;;;;;;5.57;0.63;;;17.60;62.90;;;;;;5086019;28;20437;-56
2022/09/16 08:26:01;;;;;;;1.55;0.35;;;17.70;62.30;;;;;;5072630;28;20033;-55
2022/09/16 08:28:31;;;;;;;2.05;0.85;;;17.70;62.50;;;;;;5086841;28;20499;-55
2022/09/16 08:31:18;;;;;;;0.65;0.30;;;17.60;62.10;;;;;;5085902;28;20059;-54
2022/09/16 08:33:45;;;;;;;3.70;0.90;;;17.70;62.00;;;;;;5086560;28;20054;-55
2022/09/16 08:36:19;;;;;;;0.30;0.20;;;17.60;61.80;;;;;;5082041;28;20794;-55
2022/09/16 08:38:50;;;;;;;0.90;0.60;;;17.60;61.80;;;;;;5092098;28;20115;-54
2022/09/16 08:41:45;;;;;;;5.55;0.85;;;17.50;61.60;;;;;;5082823;28;20496;-56
2022/09/16 08:44:49;;;;;;;2.63;0.50;;;17.50;61.80;;;;;;5091449;28;20047;-56
2022/09/16 08:47:33;;;;;;;1.55;0.60;;;17.50;61.90;;;;;;5092774;28;20734;-55
2022/09/16 08:50:04;;;;;;;2.45;0.63;;;17.40;61.70;;;;;;5083598;28;20051;-53
2022/09/16 08:52:34;;;;;;;2.13;0.40;;;17.40;61.90;;;;;;5082570;28;20066;-55
2022/09/16 08:55:19;;;;;;;2.35;0.50;;;17.40;62.00;;;;;;5088384;28;20055;-56
2022/09/16 08:58:21;;;;;;;1.35;0.30;;;17.40;62.40;;;;;;5082278;28;20431;-55
2022/09/16 09:00:53;;;;;;;4.45;0.90;;;17.50;63.00;;;;;;5081323;28;20552;-54
2022/09/16 09:03:33;;;;;;;;;;;17.50;62.70;;;;;;5084324;28;20052;-56
2022/09/16 09:06:21;;;;;;;1.60;0.22;;;17.60;62.90;;;;;;5089663;28;19965;-56
2022/09/16 09:09:10;;;;;;;1.65;0.30;;;17.80;62.40;;;;;;5080937;28;20071;-55
2022/09/16 09:11:58;;;;;;;1.45;0.50;;;17.90;61.90;;;;;;5081986;28;20040;-55
2022/09/16 09:14:57;;;;;;;0.93;0.22;;;18.00;61.20;;;;;;5094681;28;20051;-55
2022/09/16 09:17:33;;;;;;;0.40;0.20;;;18.20;60.50;;;;;;5079421;28;20056;-56
2022/09/16 09:20:40;;;;;;;1.33;0.30;;;18.20;60.40;;;;;;5070381;28;20080;-55
2022/09/16 09:23:37;;;;;;;1.17;0.35;;;18.30;59.80;;;;;;5084129;28;20188;-55
2022/09/16 09:26:08;;;;;;;1.80;0.60;;;18.30;59.60;;;;;;5082629;28;20047;-55
2022/09/16 09:29:12;;;;;;;1.13;0.90;;;18.30;59.20;;;;;;5083270;28;20122;-56
2022/09/16 09:32:01;;;;;;;2.40;0.60;;;18.30;59.80;;;;;;5034210;28;20096;-56
2022/09/16 09:34:49;;;;;;;7.40;0.57;;;18.30;59.60;;;;;;5087333;28;20052;-54
2022/09/16 09:37:18;;;;;;;4.25;0.38;;;18.30;59.90;;;;;;5081159;28;20040;-55
2022/09/16 09:39:53;;;;;;;2.75;0.47;;;18.30;59.60;;;;;;5090833;28;20455;-55
2022/09/16 09:42:28;;;;;;;5.13;1.17;;;18.30;59.50;;;;;;5090484;28;20040;-53
2022/09/16 09:45:23;;;;;;;1.85;0.43;;;18.30;59.40;;;;;;5103401;28;20043;-55
2022/09/16 09:47:56;;;;;;;0.45;0.30;;;18.30;58.40;;;;;;5085208;28;20058;-55
2022/09/16 09:50:29;;;;;;;1.45;0.30;;;18.30;58.90;;;;;;5090381;28;20042;-53
2022/09/16 09:53:11;;;;;;;1.40;0.38;;;18.30;58.90;;;;;;5096663;28;20035;-55
2022/09/16 09:55:39;;;;;;;3.20;0.32;;;18.30;58.70;;;;;;5094865;28;20042;-55
2022/09/16 09:58:12;;;;;;;3.88;0.70;;;18.40;58.40;;;;;;5084350;28;20048;-55
2022/09/16 10:00:39;;;;;;;3.83;0.73;;;18.40;58.50;;;;;;5086483;28;20134;-56
2022/09/16 10:03:17;;;;;;;1.02;0.30;;;18.40;59.30;;;;;;5089253;28;20036;-56
2022/09/16 10:05:46;;;;;;;1.15;0.50;;;18.50;58.80;;;;;;5082066;28;20036;-54
2022/09/16 10:08:15;;;;;;;1.70;0.50;;;18.50;58.20;;;;;;5078883;28;20040;-56
2022/09/16 10:10:58;;;;;;;3.10;0.25;;;18.60;57.50;;;;;;5093043;28;20074;-56
2022/09/16 10:13:29;;;;;;;0.75;0.40;;;18.70;56.90;;;;;;5090298;28;20085;-55
2022/09/16 10:16:10;;;;;;;1.08;0.30;;;18.80;57.60;;;;;;5083107;28;20044;-56
2022/09/16 10:18:38;;;;;;;3.80;0.30;;;18.90;56.20;;;;;;5081022;28;20132;-56
2022/09/16 10:21:10;;;;;;;1.20;0.30;;;18.90;56.90;;;;;;5094304;28;20046;-55
2022/09/16 10:23:51;;;;;;;1.08;0.30;;;19.00;56.90;;;;;;5088538;28;20369;-56
2022/09/16 10:26:27;;;;;;;1.95;0.50;;;19.10;56.80;;;;;;5082548;28;20042;-48
2022/09/16 10:29:03;;;;;;;3.33;0.40;;;19.20;56.60;;;;;;5092536;28;20044;-50
2022/09/16 10:31:41;;;;;;;2.42;0.43;;;19.30;56.40;;;;;;5104275;28;20075;-51
2022/09/16 10:34:31;;;;;;;0.98;0.38;;;19.30;56.20;;;;;;5079484;28;20059;-52
2022/09/16 10:37:26;;;;;;;2.17;0.40;;;19.40;55.60;;;;;;5083758;28;20048;-54
2022/09/16 10:39:55;;;;;;;1.42;0.40;;;19.50;55.00;;;;;;5088827;28;20032;-52
2022/09/16 10:42:27;;;;;;;0.85;0.43;;;19.60;55.40;;;;;;5081237;28;20113;-51
2022/09/16 10:45:25;;;;;;;0.70;0.30;;;19.70;54.80;;;;;;5084119;28;20043;-52
2022/09/16 10:48:06;;;;;;;2.05;0.50;;;19.70;54.60;;;;;;5077547;28;20048;-53
2022/09/16 10:50:33;;;;;;;0.70;0.40;;;19.80;53.70;;;;;;5071213;28;20041;-51
2022/09/16 10:53:00;;;;;;;0.95;0.30;;;19.80;53.90;;;;;;5083681;28;20040;-50
2022/09/16 10:55:37;;;;;;;0.85;0.40;;;19.80;53.70;;;;;;5084224;28;20040;-49
2022/09/16 10:58:17;;;;;;;1.42;0.30;;;19.80;53.40;;;;;;5083126;28;20039;-50
2022/09/16 11:01:09;;;;;;;2.20;0.30;;;19.80;52.90;;;;;;5081760;28;20048;-49
2022/09/16 11:03:56;;;;;;;1.77;0.40;;;19.80;52.80;;;;;;5078170;28;20462;-52
2022/09/16 11:06:41;;;;;;;1.95;0.20;;;19.70;54.20;;;;;;5092990;28;20046;-52
2022/09/16 11:09:14;;;;;;;0.55;0.40;;;19.60;53.50;;;;;;5088924;28;20478;-51
2022/09/16 11:12:22;;;;;;;7.75;1.05;;;19.50;53.90;;;;;;5085929;28;20123;-51
2022/09/16 11:15:04;;;;;;;2.00;0.40;;;19.50;54.70;;;;;;5091747;28;20040;-49
2022/09/16 11:17:56;;;;;;;0.50;0.50;;;19.30;55.20;;;;;;5088685;28;20454;-51
2022/09/16 11:20:38;;;;;;;2.10;0.40;;;19.10;56.00;;;;;;5078157;28;20064;-48
2022/09/16 11:23:28;;;;;;;1.98;0.70;;;18.90;57.00;;;;;;5081130;28;20037;-48
2022/09/16 11:26:13;;;;;;;2.90;0.63;;;18.60;58.30;;;;;;5072162;28;20044;-52
2022/09/16 11:28:49;;;;;;;1.10;0.52;;;18.40;57.90;;;;;;5092293;28;20149;-48
2022/09/16 11:31:15;;;;;;;3.03;0.40;;;18.10;58.80;;;;;;5080355;28;20668;-54
2022/09/16 11:33:48;;;;;;;0.50;0.22;;;17.90;59.20;;;;;;5084055;28;20040;-52
2022/09/16 11:36:17;;;;;;;2.65;0.50;;;17.70;60.10;;;;;;5089264;28;20047;-50
2022/09/16 11:39:10;;;;;;;2.10;0.65;;;17.60;60.70;;;;;;5080249;28;20044;-54
2022/09/16 11:42:03;;;;;;;0.75;0.20;;;17.50;62.50;;;;;;5071758;28;20032;-51
2022/09/16 11:44:50;;;;;;;0.75;0.35;;;17.30;62.40;;;;;;5092566;28;20040;-53
2022/09/16 11:47:33;;;;;;;3.17;0.30;;;17.20;62.40;;;;;;5086051;28;20131;-54
2022/09/16 11:50:29;;;;;;;2.92;0.20;;;17.10;61.60;;;;;;5091478;28;20427;-49
2022/09/16 11:53:01;;;;;;;1.27;0.20;;;16.90;62.50;;;;;;5093430;28;20515;-52
2022/09/16 11:55:44;;;;;;;2.80;0.93;;;16.80;62.90;;;;;;5096888;28;20118;-52
2022/09/16 11:58:44;;;;;;;3.42;0.40;;;16.70;64.30;;;;;;5072577;28;20040;-50
2022/09/16 12:01:40;;;;;;;5.45;0.90;;;16.50;66.00;;;;;;5073201;28;20048;-50
2022/09/16 12:04:29;;;;;;;0.75;0.28;;;16.20;66.30;;;;;;5090632;28;20086;-52
2022/09/16 12:07:08;;;;;;;0.20;0.10;;;16.00;65.90;;;;;;5082506;28;20036;-56
2022/09/16 12:09:50;;;;;;;0.65;0.47;;;15.80;65.80;;;;;;5090274;28;20044;-55
2022/09/16 12:12:27;;;;;;;4.03;0.52;;;15.70;68.00;;;;;;5082394;28;20407;-51
2022/09/16 12:15:21;;;;;;;2.90;0.70;;;15.50;68.10;;;;;;5085941;28;20094;-54
2022/09/16 12:17:54;;;;;;;1.52;0.40;;;15.40;69.50;;;;;;5078416;28;20563;-52
2022/09/16 12:20:28;;;;;;;4.20;0.60;;;15.30;69.20;;;;;;5071797;28;20086;-54
2022/09/16 12:23:04;;;;;;;2.85;0.43;;;15.20;69.80;;;;;;5084402;28;20047;-54
2022/09/16 12:25:38;;;;;;;1.83;0.40;;;15.30;70.40;;;;;;5082582;28;20115;-53
2022/09/16 12:28:48;;;;;;;1.83;0.43;;;15.20;70.50;;;;;;5091065;28;20036;-53
2022/09/16 12:31:36;;;;;;;2.78;0.50;;;15.20;72.10;;;;;;5096706;28;20086;-55
2022/09/16 12:34:13;;;;;;;2.83;0.40;;;15.20;72.30;;;;;;5087846;28;20057;-49
2022/09/16 12:36:44;;;;;;;1.80;0.30;;;15.20;72.20;;;;;;5068929;28;20043;-53
2022/09/16 12:39:11;;;;;;;3.08;0.50;;;15.20;72.40;;;;;;5087947;28;20044;-50
2022/09/16 12:41:38;;;;;;;2.90;0.40;;;15.30;72.80;;;;;;5095767;28;20074;-52
2022/09/16 12:44:21;;;;;;;0.98;0.52;;;15.30;73.50;;;;;;5092572;28;20055;-52
2022/09/16 12:47:15;;;;;;;0.70;0.57;;;15.40;74.10;;;;;;5087860;28;20055;-53
2022/09/16 12:50:02;;;;;;;3.30;0.60;;;15.60;74.30;;;;;;5072881;28;20051;-52
2022/09/16 12:53:08;;;;;;;1.42;0.70;;;15.70;75.50;;;;;;5093100;28;20038;-52
2022/09/16 12:55:53;;;;;;;1.63;0.98;;;16.00;75.30;;;;;;5075899;28;20044;-49
2022/09/16 12:58:44;;;;;;;1.17;0.90;;;16.10;73.00;;;;;;5079214;28;20044;-52
2022/09/16 13:01:36;;;;;;;1.33;0.77;;;16.30;74.00;;;;;;5093775;28;20069;-51
2022/09/16 13:04:13;;;;;;;1.52;0.63;;;16.40;73.80;;;;;;5081114;28;20113;-49
2022/09/16 13:06:58;;;;;;;2.13;0.80;;;16.60;73.10;;;;;;5081506;28;20047;-53
2022/09/16 13:09:32;;;;;;;1.10;1.00;;;16.70;72.80;;;;;;5083672;28;20050;-53
2022/09/16 13:12:15;;;;;;;0.70;0.60;;;16.90;72.50;;;;;;5091153;28;20044;-51
2022/09/16 13:15:04;;;;;;;2.85;0.98;;;17.00;72.90;;;;;;5075701;28;20090;-49
2022/09/16 13:17:34;;;;;;;1.98;0.50;;;17.20;73.50;;;;;;5079396;28;20511;-53
2022/09/16 13:20:17;;;;;;;1.88;0.82;;;17.50;73.80;;;;;;5063513;28;20045;-50
2022/09/16 13:23:03;;;;;;;2.42;0.60;;;17.70;72.60;;;;;;5073426;28;20044;-53
2022/09/16 13:25:46;;;;;;;3.35;1.00;;;17.90;71.20;;;;;;5072706;28;20044;-52
2022/09/16 13:28:38;;;;;;;5.70;1.15;;;18.00;70.20;;;;;;5086439;28;20111;-58
2022/09/16 13:31:11;;;;;;;6.40;1.30;;;17.90;72.00;;;;;;5069890;28;20124;-53
2022/09/16 13:33:39;;;;;;;4.95;1.15;;;17.90;70.60;;;;;;5069540;28;20048;-56
2022/09/16 13:36:18;;;;;;;3.40;0.77;;;17.70;69.90;;;;;;5090552;28;20519;-53